WetterOnline ( https://www.wetteronline.de )

Wetter aktuell Feldberg (Gipfel)

Aktuelles Wetter: Feldberg/Schwarzwald (1493m)

6-stündlich | Neueste Meldungen
Ortszeit Temperatur Wetter
Mi, 06.07. 20:00 10.2° C bedeckt
Mi, 06.07. 14:00 13.8° C leicht bewölkt
Mi, 06.07. 8:00 12.5° C wolkenlos
Mi, 06.07. 2:00 11.2° C wolkenlos
Di, 05.07. 20:00 14.3° C wolkenlos
Di, 05.07. 14:00 15.0° C leicht bewölkt
Di, 05.07. 8:00 13.0° C leicht bewölkt
Di, 05.07. 2:00 12.1° C bedeckt
Ortszeit Temperatur Wetter
Mi, 06.07. 23:30 8.1° C wolkenlos
Mi, 06.07. 23:20 8.1° C wolkenlos
Mi, 06.07. 23:10 8.0° C wolkenlos
Mi, 06.07. 23:00 8.0° C leicht bewölkt
Mi, 06.07. 22:50 8.0° C leicht bewölkt
Mi, 06.07. 22:40 8.0° C bewölkt
Mi, 06.07. 22:30 8.3° C bedeckt
Mi, 06.07. 22:00 8.6° C bedeckt
Mi, 06.07. 21:30 9.1° C bedeckt
Mi, 06.07. 21:00 9.2° C bedeckt
Mi, 06.07. 20:30 9.7° C bedeckt
Ortszeit Relative Feuchte Sichtweite
Mi, 06.07. 20:00 76% 40 km
Mi, 06.07. 14:00 66% 35 km
Mi, 06.07. 8:00 61% >70 km
Mi, 06.07. 2:00 60% >70 km
Di, 05.07. 20:00 64% >70 km
Di, 05.07. 14:00 63% 70 km
Di, 05.07. 8:00 62% 45 km
Di, 05.07. 2:00 71% 55 km
Ortszeit Relative Feuchte Sichtweite
Mi, 06.07. 23:30 74% 60 km
Mi, 06.07. 23:20 74% -
Mi, 06.07. 23:10 74% -
Mi, 06.07. 23:00 76% 60 km
Mi, 06.07. 22:50 76% -
Mi, 06.07. 22:40 76% -
Mi, 06.07. 22:30 76% 50 km
Mi, 06.07. 22:00 74% 50 km
Mi, 06.07. 21:30 70% 60 km
Mi, 06.07. 21:00 70% 50 km
Mi, 06.07. 20:30 72% 60 km
Ortszeit Niederschlagsmenge Niederschlagsart
Mi, 06.07. 20:00 0.0 l/m2 in 12 Std. -
Mi, 06.07. 14:00 0.0 l/m2 in 6 Std. -
Mi, 06.07. 8:00 0.0 l/m2 in 12 Std. -
Mi, 06.07. 2:00 0.0 l/m2 in 6 Std. -
Di, 05.07. 20:00 0.0 l/m2 in 12 Std. -
Di, 05.07. 14:00 0.0 l/m2 in 6 Std. -
Di, 05.07. 8:00 0.1 l/m2 in 12 Std. Regen
Di, 05.07. 2:00 0.1 l/m2 in 6 Std. Regen
Ortszeit Niederschlagsmenge Niederschlagsart
Mi, 06.07. 23:30 0.0 l/m2 in 1 Std. -
Mi, 06.07. 23:20 keine Meldung -
Mi, 06.07. 23:10 keine Meldung -
Mi, 06.07. 23:00 0.0 l/m2 in 1 Std. -
Mi, 06.07. 22:50 keine Meldung -
Mi, 06.07. 22:40 keine Meldung -
Mi, 06.07. 22:30 0.0 l/m2 in 1 Std. -
Mi, 06.07. 22:00 0.0 l/m2 in 1 Std. -
Mi, 06.07. 21:30 0.0 l/m2 in 1 Std. -
Mi, 06.07. 21:00 0.0 l/m2 in 1 Std. -
Mi, 06.07. 20:30 0.0 l/m2 in 1 Std. -
Ortszeit Stärke Spitze Richtung
km/h Bft. km/h Grad Sektor
Mi, 06.07. 20:00 19 3 35 350° N
Mi, 06.07. 14:00 11 2 22 320° NW
Mi, 06.07. 8:00 7 2 29 330° NW
Mi, 06.07. 2:00 25 4 40 360° N
Di, 05.07. 20:00 20 4 31 330° NW
Di, 05.07. 14:00 18 3 25 330° NW
Di, 05.07. 8:00 9 2 24 30° NO
Di, 05.07. 2:00 17 3 20 10° N
Ortszeit Stärke Spitze Richtung
km/h Bft. km/h Grad Sektor
Mi, 06.07. 23:30 20 4 24 350° N
Mi, 06.07. 23:20 20 4 - 350° N
Mi, 06.07. 23:10 22 4 - 350° N
Mi, 06.07. 23:00 20 4 28 340° N
Mi, 06.07. 22:50 20 4 - 340° N
Mi, 06.07. 22:40 20 4 - 330° NW
Mi, 06.07. 22:30 22 4 25 350° N
Mi, 06.07. 22:00 22 4 36 340° N
Mi, 06.07. 21:30 18 3 36 350° N
Mi, 06.07. 21:00 31 5 37 340° N
Mi, 06.07. 20:30 20 4 28 340° N
Ortszeit Untergrenze Bedeckung Gattung
total tief tief mittel hoch
Mi, 06.07. 20:00 4800 m 8/8 8/8 - - -
Mi, 06.07. 14:00 510 m 3/8 3/8 - - -
Mi, 06.07. 8:00 - 0/8 0/8 - - -
Mi, 06.07. 2:00 - 0/8 0/8 - - -
Di, 05.07. 20:00 - 0/8 0/8 - - -
Di, 05.07. 14:00 780 m 3/8 3/8 - - -
Di, 05.07. 8:00 870 m 4/8 4/8 - - -
Di, 05.07. 2:00 840 m 8/8 8/8 - - -
Ortszeit Bedeckungsgrad in Achtel und Wolkenuntergrenze
Mi, 06.07. 23:30 keine Wolken
Mi, 06.07. 23:20 keine Wolken
Mi, 06.07. 23:10 keine Wolken
Mi, 06.07. 23:00 3(3900m)
Mi, 06.07. 22:50 3(3900m)
Mi, 06.07. 22:40 7
Mi, 06.07. 22:30 4(3300m) 8(3900m)
Mi, 06.07. 22:00 8(3300m)
Mi, 06.07. 21:30 8(3300m)
Mi, 06.07. 21:00 6(3600m) 8(4200m)
Mi, 06.07. 20:30 8(4200m) 8(7800m)
Ortszeit Stationsdruck (hPa) Tendenz (hPa in 3 Std.)
Mi, 06.07. 20:00 858 - 0,6
Mi, 06.07. 14:00 859 + 0,6
Mi, 06.07. 8:00 858 0,0
Mi, 06.07. 2:00 858 + 0,3
Di, 05.07. 20:00 857 - 0,2
Di, 05.07. 14:00 857 + 0,3
Di, 05.07. 8:00 856 + 0,8
Di, 05.07. 2:00 856 + 0,2
Ortszeit Stationsdruck (hPa) Tendenz (hPa in 3 Std.)
Mi, 06.07. 23:30 858 + 0,2
Mi, 06.07. 23:20 858 keine Meldung
Mi, 06.07. 23:10 858 keine Meldung
Mi, 06.07. 23:00 858 + 0,7
Mi, 06.07. 22:50 858 keine Meldung
Mi, 06.07. 22:40 858 keine Meldung
Mi, 06.07. 22:30 858 + 0,6
Mi, 06.07. 22:00 858 + 0,4
Mi, 06.07. 21:30 858 + 0,2
Mi, 06.07. 21:00 858 0,0
Mi, 06.07. 20:30 858 - 0,1
Ortszeit Schneehöhe (cm)
Mi, 06.07. 20:00 0
Mi, 06.07. 14:00 0
Mi, 06.07. 8:00 0
Mi, 06.07. 2:00 0
Di, 05.07. 20:00 0
Di, 05.07. 14:00 0
Di, 05.07. 8:00 0
Di, 05.07. 2:00 0
Ortszeit Schneehöhe (cm)
Mi, 06.07. 23:30 0
Mi, 06.07. 23:20 0
Mi, 06.07. 23:10 0
Mi, 06.07. 23:00 0
Mi, 06.07. 22:50 0
Mi, 06.07. 22:40 0
Mi, 06.07. 22:30 0
Mi, 06.07. 22:00 0
Mi, 06.07. 21:30 0
Mi, 06.07. 21:00 0
Mi, 06.07. 20:30 0
Link zu dieser Seite / Seite empfehlen

Das Wetter in ...